sensor_id;sensor_type;location;lat;lon;timestamp;P1;durP1;ratioP1;P2;durP2;ratioP2
41799;SDS011;27468;47.460;19.034;2023-07-29T00:01:36;4.55;;;2.30;;
41799;SDS011;27468;47.460;19.034;2023-07-29T00:04:02;2.95;;;2.25;;
41799;SDS011;27468;47.460;19.034;2023-07-29T00:06:27;4.53;;;2.55;;
41799;SDS011;27468;47.460;19.034;2023-07-29T00:08:53;3.35;;;2.40;;
41799;SDS011;27468;47.460;19.034;2023-07-29T00:11:19;5.28;;;2.40;;
41799;SDS011;27468;47.460;19.034;2023-07-29T00:13:44;3.72;;;2.42;;
41799;SDS011;27468;47.460;19.034;2023-07-29T00:16:10;5.20;;;2.42;;
41799;SDS011;27468;47.460;19.034;2023-07-29T00:18:35;4.30;;;2.40;;
41799;SDS011;27468;47.460;19.034;2023-07-29T00:21:00;3.45;;;2.30;;
41799;SDS011;27468;47.460;19.034;2023-07-29T00:23:26;4.35;;;2.35;;
41799;SDS011;27468;47.460;19.034;2023-07-29T00:25:51;4.35;;;2.10;;
41799;SDS011;27468;47.460;19.034;2023-07-29T00:28:17;5.50;;;2.70;;
41799;SDS011;27468;47.460;19.034;2023-07-29T00:30:42;3.30;;;2.08;;
41799;SDS011;27468;47.460;19.034;2023-07-29T00:33:08;3.47;;;2.38;;
41799;SDS011;27468;47.460;19.034;2023-07-29T00:35:34;3.78;;;2.17;;
41799;SDS011;27468;47.460;19.034;2023-07-29T00:37:59;3.15;;;2.15;;
41799;SDS011;27468;47.460;19.034;2023-07-29T00:40:25;4.55;;;2.28;;
41799;SDS011;27468;47.460;19.034;2023-07-29T00:42:53;4.90;;;1.98;;
41799;SDS011;27468;47.460;19.034;2023-07-29T00:45:18;4.82;;;2.38;;
41799;SDS011;27468;47.460;19.034;2023-07-29T00:47:44;4.55;;;2.75;;
41799;SDS011;27468;47.460;19.034;2023-07-29T00:50:10;3.50;;;2.13;;
41799;SDS011;27468;47.460;19.034;2023-07-29T00:52:36;4.07;;;2.40;;
41799;SDS011;27468;47.460;19.034;2023-07-29T00:55:02;3.05;;;2.20;;
41799;SDS011;27468;47.460;19.034;2023-07-29T00:57:29;2.85;;;2.05;;
41799;SDS011;27468;47.460;19.034;2023-07-29T00:59:55;4.53;;;2.35;;
41799;SDS011;27468;47.460;19.034;2023-07-29T01:02:21;3.60;;;2.15;;
41799;SDS011;27468;47.460;19.034;2023-07-29T01:04:51;3.10;;;1.98;;
41799;SDS011;27468;47.460;19.034;2023-07-29T01:07:21;3.67;;;1.85;;
41799;SDS011;27468;47.460;19.034;2023-07-29T01:12:48;2.80;;;2.08;;
41799;SDS011;27468;47.460;19.034;2023-07-29T01:18:21;5.53;;;2.43;;
41799;SDS011;27468;47.460;19.034;2023-07-29T01:20:48;3.35;;;1.98;;
41799;SDS011;27468;47.460;19.034;2023-07-29T01:23:25;2.92;;;1.90;;
41799;SDS011;27468;47.460;19.034;2023-07-29T01:25:53;2.33;;;1.73;;
41799;SDS011;27468;47.460;19.034;2023-07-29T01:28:19;3.30;;;2.22;;
41799;SDS011;27468;47.460;19.034;2023-07-29T01:30:45;3.08;;;1.90;;
41799;SDS011;27468;47.460;19.034;2023-07-29T01:33:16;3.90;;;2.03;;
41799;SDS011;27468;47.460;19.034;2023-07-29T01:35:46;2.73;;;1.90;;
41799;SDS011;27468;47.460;19.034;2023-07-29T01:38:19;2.60;;;2.03;;
41799;SDS011;27468;47.460;19.034;2023-07-29T01:40:49;3.95;;;1.80;;
41799;SDS011;27468;47.460;19.034;2023-07-29T01:43:16;4.75;;;2.38;;
41799;SDS011;27468;47.460;19.034;2023-07-29T01:45:44;3.72;;;2.00;;
41799;SDS011;27468;47.460;19.034;2023-07-29T01:48:09;3.15;;;1.95;;
41799;SDS011;27468;47.460;19.034;2023-07-29T01:50:35;3.08;;;1.90;;
41799;SDS011;27468;47.460;19.034;2023-07-29T01:53:00;2.70;;;1.70;;
41799;SDS011;27468;47.460;19.034;2023-07-29T01:55:26;2.97;;;2.03;;
41799;SDS011;27468;47.460;19.034;2023-07-29T01:57:51;2.97;;;1.85;;
41799;SDS011;27468;47.460;19.034;2023-07-29T02:00:20;3.38;;;2.08;;
41799;SDS011;27468;47.460;19.034;2023-07-29T02:02:46;3.83;;;1.85;;
41799;SDS011;27468;47.460;19.034;2023-07-29T02:05:11;4.30;;;2.17;;
41799;SDS011;27468;47.460;19.034;2023-07-29T02:07:37;3.30;;;1.90;;
41799;SDS011;27468;47.460;19.034;2023-07-29T02:10:02;2.53;;;2.10;;
41799;SDS011;27468;47.460;19.034;2023-07-29T02:12:28;3.17;;;2.17;;
41799;SDS011;27468;47.460;19.034;2023-07-29T02:14:53;3.40;;;1.80;;
41799;SDS011;27468;47.460;19.034;2023-07-29T02:17:19;3.38;;;1.88;;
41799;SDS011;27468;47.460;19.034;2023-07-29T02:19:44;2.88;;;2.00;;
41799;SDS011;27468;47.460;19.034;2023-07-29T02:22:12;3.60;;;1.67;;
41799;SDS011;27468;47.460;19.034;2023-07-29T02:24:39;3.47;;;2.00;;
41799;SDS011;27468;47.460;19.034;2023-07-29T02:27:04;2.60;;;1.75;;
41799;SDS011;27468;47.460;19.034;2023-07-29T02:29:30;4.57;;;2.10;;
41799;SDS011;27468;47.460;19.034;2023-07-29T02:31:55;3.10;;;2.03;;
41799;SDS011;27468;47.460;19.034;2023-07-29T02:34:21;2.67;;;1.95;;
41799;SDS011;27468;47.460;19.034;2023-07-29T02:36:46;3.90;;;2.22;;
41799;SDS011;27468;47.460;19.034;2023-07-29T02:39:12;3.92;;;2.03;;
41799;SDS011;27468;47.460;19.034;2023-07-29T02:41:37;3.58;;;2.13;;
41799;SDS011;27468;47.460;19.034;2023-07-29T02:44:02;3.15;;;1.63;;
41799;SDS011;27468;47.460;19.034;2023-07-29T02:46:28;3.33;;;2.05;;
41799;SDS011;27468;47.460;19.034;2023-07-29T02:48:53;2.30;;;1.80;;
41799;SDS011;27468;47.460;19.034;2023-07-29T02:51:19;3.17;;;2.08;;
41799;SDS011;27468;47.460;19.034;2023-07-29T02:53:44;2.67;;;2.00;;
41799;SDS011;27468;47.460;19.034;2023-07-29T02:56:10;4.60;;;1.70;;
41799;SDS011;27468;47.460;19.034;2023-07-29T02:58:36;2.85;;;2.10;;
41799;SDS011;27468;47.460;19.034;2023-07-29T03:01:03;3.20;;;2.08;;
41799;SDS011;27468;47.460;19.034;2023-07-29T03:03:29;3.20;;;2.33;;
41799;SDS011;27468;47.460;19.034;2023-07-29T03:06:05;3.10;;;2.00;;
41799;SDS011;27468;47.460;19.034;2023-07-29T03:08:34;3.53;;;2.17;;
41799;SDS011;27468;47.460;19.034;2023-07-29T03:11:04;4.53;;;2.30;;
41799;SDS011;27468;47.460;19.034;2023-07-29T03:13:34;4.10;;;2.05;;
41799;SDS011;27468;47.460;19.034;2023-07-29T03:16:06;4.38;;;2.17;;
41799;SDS011;27468;47.460;19.034;2023-07-29T03:18:33;4.15;;;2.13;;
41799;SDS011;27468;47.460;19.034;2023-07-29T03:20:58;5.03;;;2.30;;
41799;SDS011;27468;47.460;19.034;2023-07-29T03:23:24;3.08;;;1.75;;
41799;SDS011;27468;47.460;19.034;2023-07-29T03:25:49;4.70;;;2.10;;
41799;SDS011;27468;47.460;19.034;2023-07-29T03:28:16;3.92;;;2.10;;
41799;SDS011;27468;47.460;19.034;2023-07-29T03:30:42;3.88;;;2.03;;
41799;SDS011;27468;47.460;19.034;2023-07-29T03:33:07;3.78;;;2.20;;
41799;SDS011;27468;47.460;19.034;2023-07-29T03:35:32;3.70;;;2.20;;
41799;SDS011;27468;47.460;19.034;2023-07-29T03:37:58;4.18;;;2.20;;
41799;SDS011;27468;47.460;19.034;2023-07-29T03:40:23;3.50;;;2.10;;
41799;SDS011;27468;47.460;19.034;2023-07-29T03:42:49;3.42;;;2.05;;
41799;SDS011;27468;47.460;19.034;2023-07-29T03:45:14;2.83;;;1.92;;
41799;SDS011;27468;47.460;19.034;2023-07-29T03:47:40;5.18;;;2.20;;
41799;SDS011;27468;47.460;19.034;2023-07-29T03:50:05;3.92;;;2.13;;
41799;SDS011;27468;47.460;19.034;2023-07-29T03:52:31;3.10;;;2.03;;
41799;SDS011;27468;47.460;19.034;2023-07-29T03:54:57;4.45;;;2.17;;
41799;SDS011;27468;47.460;19.034;2023-07-29T03:57:22;3.58;;;2.28;;
41799;SDS011;27468;47.460;19.034;2023-07-29T03:59:48;3.78;;;1.95;;
41799;SDS011;27468;47.460;19.034;2023-07-29T04:02:13;3.20;;;2.10;;
41799;SDS011;27468;47.460;19.034;2023-07-29T04:04:39;4.13;;;1.80;;
41799;SDS011;27468;47.460;19.034;2023-07-29T04:07:06;4.18;;;2.38;;
41799;SDS011;27468;47.460;19.034;2023-07-29T04:09:32;3.97;;;1.95;;
41799;SDS011;27468;47.460;19.034;2023-07-29T04:11:57;3.17;;;1.90;;
41799;SDS011;27468;47.460;19.034;2023-07-29T04:14:23;3.92;;;2.08;;
41799;SDS011;27468;47.460;19.034;2023-07-29T04:16:48;3.75;;;2.28;;
41799;SDS011;27468;47.460;19.034;2023-07-29T04:19:14;3.70;;;2.00;;
41799;SDS011;27468;47.460;19.034;2023-07-29T04:21:39;3.42;;;2.22;;
41799;SDS011;27468;47.460;19.034;2023-07-29T04:24:05;2.83;;;1.90;;
41799;SDS011;27468;47.460;19.034;2023-07-29T04:26:30;2.47;;;1.98;;
41799;SDS011;27468;47.460;19.034;2023-07-29T04:28:55;4.32;;;2.22;;
41799;SDS011;27468;47.460;19.034;2023-07-29T04:31:21;2.97;;;2.08;;
41799;SDS011;27468;47.460;19.034;2023-07-29T04:33:46;3.22;;;1.90;;
41799;SDS011;27468;47.460;19.034;2023-07-29T04:36:12;2.85;;;1.85;;
41799;SDS011;27468;47.460;19.034;2023-07-29T04:38:37;3.05;;;1.98;;
41799;SDS011;27468;47.460;19.034;2023-07-29T04:41:03;2.33;;;1.83;;
41799;SDS011;27468;47.460;19.034;2023-07-29T04:43:32;2.88;;;2.22;;
41799;SDS011;27468;47.460;19.034;2023-07-29T04:45:58;3.88;;;2.30;;
41799;SDS011;27468;47.460;19.034;2023-07-29T04:48:23;2.80;;;1.95;;
41799;SDS011;27468;47.460;19.034;2023-07-29T04:50:49;2.45;;;1.73;;
41799;SDS011;27468;47.460;19.034;2023-07-29T04:53:14;3.05;;;1.90;;
41799;SDS011;27468;47.460;19.034;2023-07-29T04:55:42;3.00;;;2.00;;
41799;SDS011;27468;47.460;19.034;2023-07-29T04:58:08;2.35;;;1.95;;
41799;SDS011;27468;47.460;19.034;2023-07-29T05:00:34;3.40;;;2.42;;
41799;SDS011;27468;47.460;19.034;2023-07-29T05:02:59;2.75;;;2.22;;
41799;SDS011;27468;47.460;19.034;2023-07-29T05:05:26;2.88;;;1.95;;
41799;SDS011;27468;47.460;19.034;2023-07-29T05:07:51;2.25;;;1.83;;
41799;SDS011;27468;47.460;19.034;2023-07-29T05:10:17;2.33;;;1.83;;
41799;SDS011;27468;47.460;19.034;2023-07-29T05:12:42;2.55;;;2.00;;
41799;SDS011;27468;47.460;19.034;2023-07-29T05:15:07;3.22;;;1.95;;
41799;SDS011;27468;47.460;19.034;2023-07-29T05:17:33;2.88;;;1.95;;
41799;SDS011;27468;47.460;19.034;2023-07-29T05:19:59;3.75;;;2.15;;
41799;SDS011;27468;47.460;19.034;2023-07-29T05:22:24;2.42;;;2.00;;
41799;SDS011;27468;47.460;19.034;2023-07-29T05:24:50;3.17;;;1.95;;
41799;SDS011;27468;47.460;19.034;2023-07-29T05:27:15;2.92;;;2.10;;
41799;SDS011;27468;47.460;19.034;2023-07-29T05:29:41;2.60;;;1.90;;
41799;SDS011;27468;47.460;19.034;2023-07-29T05:32:06;2.85;;;2.35;;
41799;SDS011;27468;47.460;19.034;2023-07-29T05:34:32;3.70;;;1.92;;
41799;SDS011;27468;47.460;19.034;2023-07-29T05:36:57;2.50;;;2.00;;
41799;SDS011;27468;47.460;19.034;2023-07-29T05:39:22;4.85;;;2.13;;
41799;SDS011;27468;47.460;19.034;2023-07-29T05:41:49;3.38;;;2.28;;
41799;SDS011;27468;47.460;19.034;2023-07-29T05:44:14;4.28;;;1.98;;
41799;SDS011;27468;47.460;19.034;2023-07-29T05:46:40;4.80;;;2.45;;
41799;SDS011;27468;47.460;19.034;2023-07-29T05:49:05;5.00;;;2.15;;
41799;SDS011;27468;47.460;19.034;2023-07-29T05:51:31;2.45;;;2.15;;
41799;SDS011;27468;47.460;19.034;2023-07-29T05:53:56;2.65;;;2.20;;
41799;SDS011;27468;47.460;19.034;2023-07-29T05:56:21;5.40;;;2.65;;
41799;SDS011;27468;47.460;19.034;2023-07-29T05:58:47;2.67;;;2.20;;
41799;SDS011;27468;47.460;19.034;2023-07-29T06:01:12;2.28;;;1.88;;
41799;SDS011;27468;47.460;19.034;2023-07-29T06:03:37;3.55;;;2.10;;
41799;SDS011;27468;47.460;19.034;2023-07-29T06:06:03;3.10;;;2.13;;
41799;SDS011;27468;47.460;19.034;2023-07-29T06:08:28;3.95;;;2.10;;
41799;SDS011;27468;47.460;19.034;2023-07-29T06:10:54;2.95;;;2.15;;
41799;SDS011;27468;47.460;19.034;2023-07-29T06:13:19;4.32;;;2.17;;
41799;SDS011;27468;47.460;19.034;2023-07-29T06:15:45;3.97;;;2.33;;
41799;SDS011;27468;47.460;19.034;2023-07-29T06:18:10;3.60;;;2.13;;
41799;SDS011;27468;47.460;19.034;2023-07-29T06:20:35;3.47;;;1.90;;
41799;SDS011;27468;47.460;19.034;2023-07-29T06:23:01;3.58;;;2.42;;
41799;SDS011;27468;47.460;19.034;2023-07-29T06:25:27;3.92;;;2.15;;
41799;SDS011;27468;47.460;19.034;2023-07-29T06:27:52;3.10;;;1.88;;
41799;SDS011;27468;47.460;19.034;2023-07-29T06:30:18;2.65;;;2.10;;
41799;SDS011;27468;47.460;19.034;2023-07-29T06:32:43;2.78;;;1.88;;
41799;SDS011;27468;47.460;19.034;2023-07-29T06:35:08;3.85;;;2.30;;
41799;SDS011;27468;47.460;19.034;2023-07-29T06:37:34;2.90;;;2.25;;
41799;SDS011;27468;47.460;19.034;2023-07-29T06:39:59;3.47;;;2.10;;
41799;SDS011;27468;47.460;19.034;2023-07-29T06:42:24;3.22;;;1.90;;
41799;SDS011;27468;47.460;19.034;2023-07-29T06:44:50;2.53;;;1.80;;
41799;SDS011;27468;47.460;19.034;2023-07-29T06:47:15;4.13;;;1.85;;
41799;SDS011;27468;47.460;19.034;2023-07-29T06:49:41;2.92;;;1.98;;
41799;SDS011;27468;47.460;19.034;2023-07-29T06:52:06;2.30;;;1.90;;
41799;SDS011;27468;47.460;19.034;2023-07-29T06:54:32;2.30;;;1.90;;
41799;SDS011;27468;47.460;19.034;2023-07-29T06:56:57;3.15;;;2.05;;
41799;SDS011;27468;47.460;19.034;2023-07-29T06:59:23;3.50;;;2.15;;
41799;SDS011;27468;47.460;19.034;2023-07-29T07:01:49;2.72;;;2.20;;
41799;SDS011;27468;47.460;19.034;2023-07-29T07:04:15;3.42;;;2.15;;
41799;SDS011;27468;47.460;19.034;2023-07-29T07:06:40;2.75;;;2.10;;
41799;SDS011;27468;47.460;19.034;2023-07-29T07:09:06;2.80;;;2.00;;
41799;SDS011;27468;47.460;19.034;2023-07-29T07:11:31;2.40;;;2.10;;
41799;SDS011;27468;47.460;19.034;2023-07-29T07:13:57;2.10;;;1.88;;
41799;SDS011;27468;47.460;19.034;2023-07-29T07:16:22;2.75;;;2.05;;
41799;SDS011;27468;47.460;19.034;2023-07-29T07:18:48;2.63;;;2.15;;
41799;SDS011;27468;47.460;19.034;2023-07-29T07:21:13;3.00;;;1.80;;
41799;SDS011;27468;47.460;19.034;2023-07-29T07:23:39;2.83;;;1.90;;
41799;SDS011;27468;47.460;19.034;2023-07-29T07:26:04;3.22;;;2.13;;
41799;SDS011;27468;47.460;19.034;2023-07-29T07:28:30;4.18;;;1.80;;
41799;SDS011;27468;47.460;19.034;2023-07-29T07:30:55;2.60;;;1.92;;
41799;SDS011;27468;47.460;19.034;2023-07-29T07:33:21;3.53;;;1.92;;
41799;SDS011;27468;47.460;19.034;2023-07-29T07:35:47;1.63;;;1.48;;
41799;SDS011;27468;47.460;19.034;2023-07-29T07:38:12;1.85;;;1.60;;
41799;SDS011;27468;47.460;19.034;2023-07-29T07:40:37;2.13;;;1.70;;
41799;SDS011;27468;47.460;19.034;2023-07-29T07:43:03;2.20;;;1.83;;
41799;SDS011;27468;47.460;19.034;2023-07-29T07:45:28;2.17;;;1.70;;
41799;SDS011;27468;47.460;19.034;2023-07-29T07:47:54;2.35;;;1.70;;
41799;SDS011;27468;47.460;19.034;2023-07-29T07:50:19;2.95;;;1.40;;
41799;SDS011;27468;47.460;19.034;2023-07-29T07:52:45;3.88;;;1.83;;
41799;SDS011;27468;47.460;19.034;2023-07-29T07:55:10;1.90;;;1.50;;
41799;SDS011;27468;47.460;19.034;2023-07-29T07:57:36;2.00;;;1.52;;
41799;SDS011;27468;47.460;19.034;2023-07-29T08:00:02;1.80;;;1.40;;
41799;SDS011;27468;47.460;19.034;2023-07-29T08:02:29;2.00;;;1.50;;
41799;SDS011;27468;47.460;19.034;2023-07-29T08:04:54;1.60;;;1.45;;
41799;SDS011;27468;47.460;19.034;2023-07-29T08:07:20;2.50;;;1.73;;
41799;SDS011;27468;47.460;19.034;2023-07-29T08:09:45;2.67;;;1.45;;
41799;SDS011;27468;47.460;19.034;2023-07-29T08:12:10;2.17;;;1.52;;
41799;SDS011;27468;47.460;19.034;2023-07-29T08:14:36;1.90;;;1.50;;
41799;SDS011;27468;47.460;19.034;2023-07-29T08:17:01;2.47;;;1.60;;
41799;SDS011;27468;47.460;19.034;2023-07-29T08:19:26;2.20;;;1.42;;
41799;SDS011;27468;47.460;19.034;2023-07-29T08:21:52;2.78;;;1.50;;
41799;SDS011;27468;47.460;19.034;2023-07-29T08:24:18;1.88;;;1.40;;
41799;SDS011;27468;47.460;19.034;2023-07-29T08:26:43;2.17;;;1.20;;
41799;SDS011;27468;47.460;19.034;2023-07-29T08:29:08;1.60;;;1.15;;
41799;SDS011;27468;47.460;19.034;2023-07-29T08:31:34;2.15;;;1.58;;
41799;SDS011;27468;47.460;19.034;2023-07-29T08:33:59;1.52;;;1.33;;
41799;SDS011;27468;47.460;19.034;2023-07-29T08:36:25;1.83;;;1.33;;
41799;SDS011;27468;47.460;19.034;2023-07-29T08:38:51;1.67;;;1.20;;
41799;SDS011;27468;47.460;19.034;2023-07-29T08:41:19;1.83;;;1.08;;
41799;SDS011;27468;47.460;19.034;2023-07-29T08:46:26;1.90;;;1.20;;
41799;SDS011;27468;47.460;19.034;2023-07-29T08:48:53;1.88;;;1.08;;
41799;SDS011;27468;47.460;19.034;2023-07-29T08:51:20;1.17;;;1.08;;
41799;SDS011;27468;47.460;19.034;2023-07-29T08:53:46;1.50;;;1.20;;
41799;SDS011;27468;47.460;19.034;2023-07-29T08:56:12;2.25;;;1.00;;
41799;SDS011;27468;47.460;19.034;2023-07-29T08:58:38;3.42;;;1.20;;
41799;SDS011;27468;47.460;19.034;2023-07-29T09:01:05;1.33;;;1.10;;
41799;SDS011;27468;47.460;19.034;2023-07-29T09:03:31;1.30;;;1.17;;
41799;SDS011;27468;47.460;19.034;2023-07-29T09:05:57;1.35;;;1.20;;
41799;SDS011;27468;47.460;19.034;2023-07-29T09:08:24;1.70;;;1.30;;
41799;SDS011;27468;47.460;19.034;2023-07-29T09:10:53;1.45;;;1.10;;
41799;SDS011;27468;47.460;19.034;2023-07-29T09:13:19;1.65;;;1.05;;
41799;SDS011;27468;47.460;19.034;2023-07-29T09:15:45;2.42;;;1.45;;
41799;SDS011;27468;47.460;19.034;2023-07-29T09:18:11;1.70;;;1.20;;
41799;SDS011;27468;47.460;19.034;2023-07-29T09:20:40;1.75;;;1.20;;
41799;SDS011;27468;47.460;19.034;2023-07-29T09:23:07;2.60;;;1.30;;
41799;SDS011;27468;47.460;19.034;2023-07-29T09:25:37;1.30;;;1.20;;
41799;SDS011;27468;47.460;19.034;2023-07-29T09:28:07;1.63;;;1.38;;
41799;SDS011;27468;47.460;19.034;2023-07-29T09:30:40;1.88;;;1.52;;
41799;SDS011;27468;47.460;19.034;2023-07-29T09:33:08;1.50;;;1.23;;
41799;SDS011;27468;47.460;19.034;2023-07-29T09:35:34;2.22;;;1.45;;
41799;SDS011;27468;47.460;19.034;2023-07-29T09:38:01;1.48;;;1.35;;
41799;SDS011;27468;47.460;19.034;2023-07-29T09:40:34;1.55;;;1.45;;
41799;SDS011;27468;47.460;19.034;2023-07-29T09:43:04;1.70;;;1.27;;
41799;SDS011;27468;47.460;19.034;2023-07-29T09:45:32;1.63;;;1.30;;
41799;SDS011;27468;47.460;19.034;2023-07-29T09:47:59;1.63;;;1.45;;
41799;SDS011;27468;47.460;19.034;2023-07-29T09:50:25;1.38;;;1.15;;
41799;SDS011;27468;47.460;19.034;2023-07-29T09:52:51;1.23;;;1.13;;
41799;SDS011;27468;47.460;19.034;2023-07-29T09:55:18;2.97;;;1.20;;
41799;SDS011;27468;47.460;19.034;2023-07-29T09:57:44;1.15;;;1.05;;
41799;SDS011;27468;47.460;19.034;2023-07-29T10:00:10;1.30;;;1.20;;
41799;SDS011;27468;47.460;19.034;2023-07-29T10:02:40;1.40;;;1.13;;
41799;SDS011;27468;47.460;19.034;2023-07-29T10:05:07;1.00;;;0.90;;
41799;SDS011;27468;47.460;19.034;2023-07-29T10:07:34;1.42;;;1.13;;
41799;SDS011;27468;47.460;19.034;2023-07-29T10:10:04;2.05;;;1.20;;
41799;SDS011;27468;47.460;19.034;2023-07-29T10:12:31;1.95;;;1.33;;
41799;SDS011;27468;47.460;19.034;2023-07-29T10:15:02;1.42;;;1.05;;
41799;SDS011;27468;47.460;19.034;2023-07-29T10:17:30;1.50;;;1.35;;
41799;SDS011;27468;47.460;19.034;2023-07-29T10:19:58;1.33;;;1.10;;
41799;SDS011;27468;47.460;19.034;2023-07-29T10:22:24;1.13;;;1.02;;
41799;SDS011;27468;47.460;19.034;2023-07-29T10:24:53;3.22;;;1.27;;
41799;SDS011;27468;47.460;19.034;2023-07-29T10:27:21;2.38;;;1.15;;
41799;SDS011;27468;47.460;19.034;2023-07-29T10:29:49;1.15;;;1.02;;
41799;SDS011;27468;47.460;19.034;2023-07-29T10:32:15;1.85;;;1.13;;
41799;SDS011;27468;47.460;19.034;2023-07-29T10:34:41;1.40;;;1.05;;
41799;SDS011;27468;47.460;19.034;2023-07-29T10:37:08;1.10;;;0.90;;
41799;SDS011;27468;47.460;19.034;2023-07-29T10:39:37;1.23;;;1.00;;
41799;SDS011;27468;47.460;19.034;2023-07-29T10:42:05;2.28;;;1.30;;
41799;SDS011;27468;47.460;19.034;2023-07-29T10:47:11;1.33;;;1.23;;
41799;SDS011;27468;47.460;19.034;2023-07-29T10:49:39;2.30;;;1.55;;
41799;SDS011;27468;47.460;19.034;2023-07-29T10:52:06;1.20;;;1.10;;
41799;SDS011;27468;47.460;19.034;2023-07-29T10:54:31;2.20;;;1.27;;
41799;SDS011;27468;47.460;19.034;2023-07-29T10:57:13;1.48;;;1.30;;
41799;SDS011;27468;47.460;19.034;2023-07-29T10:59:55;1.90;;;1.33;;
41799;SDS011;27468;47.460;19.034;2023-07-29T11:02:22;1.63;;;1.30;;
41799;SDS011;27468;47.460;19.034;2023-07-29T11:04:54;1.95;;;1.63;;
41799;SDS011;27468;47.460;19.034;2023-07-29T11:07:20;2.20;;;1.50;;
41799;SDS011;27468;47.460;19.034;2023-07-29T11:12:33;1.80;;;1.23;;
41799;SDS011;27468;47.460;19.034;2023-07-29T11:17:37;2.00;;;1.52;;
41799;SDS011;27468;47.460;19.034;2023-07-29T11:20:05;2.00;;;1.48;;
41799;SDS011;27468;47.460;19.034;2023-07-29T11:22:32;2.78;;;1.67;;
41799;SDS011;27468;47.460;19.034;2023-07-29T11:24:57;1.48;;;1.35;;
41799;SDS011;27468;47.460;19.034;2023-07-29T11:27:23;1.63;;;1.40;;
41799;SDS011;27468;47.460;19.034;2023-07-29T11:29:48;1.52;;;1.20;;
41799;SDS011;27468;47.460;19.034;2023-07-29T11:32:14;1.88;;;1.58;;
41799;SDS011;27468;47.460;19.034;2023-07-29T11:34:41;1.55;;;1.40;;
41799;SDS011;27468;47.460;19.034;2023-07-29T11:37:09;1.67;;;1.33;;
41799;SDS011;27468;47.460;19.034;2023-07-29T11:39:39;1.55;;;1.30;;
41799;SDS011;27468;47.460;19.034;2023-07-29T11:42:06;1.85;;;1.40;;
41799;SDS011;27468;47.460;19.034;2023-07-29T11:44:32;1.70;;;1.33;;
41799;SDS011;27468;47.460;19.034;2023-07-29T11:46:57;1.75;;;1.10;;
41799;SDS011;27468;47.460;19.034;2023-07-29T11:49:23;1.58;;;1.27;;
41799;SDS011;27468;47.460;19.034;2023-07-29T11:51:48;1.55;;;1.40;;
41799;SDS011;27468;47.460;19.034;2023-07-29T11:54:15;2.08;;;1.50;;
41799;SDS011;27468;47.460;19.034;2023-07-29T11:56:41;1.70;;;1.52;;
41799;SDS011;27468;47.460;19.034;2023-07-29T11:59:06;2.10;;;1.50;;
41799;SDS011;27468;47.460;19.034;2023-07-29T12:01:32;1.50;;;1.40;;
41799;SDS011;27468;47.460;19.034;2023-07-29T12:03:58;1.85;;;1.40;;
41799;SDS011;27468;47.460;19.034;2023-07-29T12:06:24;1.58;;;1.30;;
41799;SDS011;27468;47.460;19.034;2023-07-29T12:08:50;1.85;;;1.50;;
41799;SDS011;27468;47.460;19.034;2023-07-29T12:11:16;5.07;;;1.60;;
41799;SDS011;27468;47.460;19.034;2023-07-29T12:13:43;1.85;;;1.40;;
41799;SDS011;27468;47.460;19.034;2023-07-29T12:16:09;2.08;;;1.42;;
41799;SDS011;27468;47.460;19.034;2023-07-29T12:18:35;1.83;;;1.15;;
41799;SDS011;27468;47.460;19.034;2023-07-29T12:21:01;1.63;;;1.40;;
41799;SDS011;27468;47.460;19.034;2023-07-29T12:23:28;1.83;;;1.30;;
41799;SDS011;27468;47.460;19.034;2023-07-29T12:25:58;2.90;;;1.50;;
41799;SDS011;27468;47.460;19.034;2023-07-29T12:28:24;1.48;;;1.25;;
41799;SDS011;27468;47.460;19.034;2023-07-29T12:30:54;1.50;;;1.20;;
41799;SDS011;27468;47.460;19.034;2023-07-29T12:33:29;2.15;;;1.60;;
41799;SDS011;27468;47.460;19.034;2023-07-29T12:35:58;2.00;;;1.50;;
41799;SDS011;27468;47.460;19.034;2023-07-29T12:38:27;1.65;;;1.50;;
41799;SDS011;27468;47.460;19.034;2023-07-29T12:40:53;2.50;;;1.20;;
41799;SDS011;27468;47.460;19.034;2023-07-29T12:43:18;1.80;;;1.40;;
41799;SDS011;27468;47.460;19.034;2023-07-29T12:45:44;1.77;;;1.58;;
41799;SDS011;27468;47.460;19.034;2023-07-29T12:48:09;1.05;;;0.98;;
41799;SDS011;27468;47.460;19.034;2023-07-29T12:50:36;1.80;;;1.17;;
41799;SDS011;27468;47.460;19.034;2023-07-29T12:53:02;1.83;;;1.25;;
41799;SDS011;27468;47.460;19.034;2023-07-29T12:55:27;2.45;;;1.20;;
41799;SDS011;27468;47.460;19.034;2023-07-29T12:57:53;2.53;;;1.50;;
41799;SDS011;27468;47.460;19.034;2023-07-29T13:00:18;1.38;;;1.10;;
41799;SDS011;27468;47.460;19.034;2023-07-29T13:02:43;1.70;;;1.40;;
41799;SDS011;27468;47.460;19.034;2023-07-29T13:05:10;3.03;;;1.58;;
41799;SDS011;27468;47.460;19.034;2023-07-29T13:07:37;1.73;;;1.23;;
41799;SDS011;27468;47.460;19.034;2023-07-29T13:10:03;1.73;;;1.40;;
41799;SDS011;27468;47.460;19.034;2023-07-29T13:12:29;2.10;;;1.52;;
41799;SDS011;27468;47.460;19.034;2023-07-29T13:14:54;2.15;;;1.20;;
41799;SDS011;27468;47.460;19.034;2023-07-29T13:17:21;2.28;;;1.42;;
41799;SDS011;27468;47.460;19.034;2023-07-29T13:19:47;1.80;;;1.30;;
41799;SDS011;27468;47.460;19.034;2023-07-29T13:22:12;1.73;;;1.27;;
41799;SDS011;27468;47.460;19.034;2023-07-29T13:24:38;1.52;;;1.40;;
41799;SDS011;27468;47.460;19.034;2023-07-29T13:27:03;1.80;;;1.33;;
41799;SDS011;27468;47.460;19.034;2023-07-29T13:29:29;1.58;;;1.48;;
41799;SDS011;27468;47.460;19.034;2023-07-29T13:31:54;1.77;;;1.30;;
41799;SDS011;27468;47.460;19.034;2023-07-29T13:34:20;1.60;;;1.30;;
41799;SDS011;27468;47.460;19.034;2023-07-29T13:36:45;2.13;;;1.20;;
41799;SDS011;27468;47.460;19.034;2023-07-29T13:39:10;1.65;;;1.30;;
41799;SDS011;27468;47.460;19.034;2023-07-29T13:41:36;2.88;;;1.52;;
41799;SDS011;27468;47.460;19.034;2023-07-29T13:44:01;2.13;;;1.50;;
41799;SDS011;27468;47.460;19.034;2023-07-29T13:46:26;1.85;;;1.40;;
41799;SDS011;27468;47.460;19.034;2023-07-29T13:48:52;2.05;;;1.50;;
41799;SDS011;27468;47.460;19.034;2023-07-29T13:51:17;2.17;;;1.33;;
41799;SDS011;27468;47.460;19.034;2023-07-29T13:53:42;1.60;;;1.38;;
41799;SDS011;27468;47.460;19.034;2023-07-29T13:56:08;2.15;;;1.48;;
41799;SDS011;27468;47.460;19.034;2023-07-29T13:58:33;1.40;;;1.30;;
41799;SDS011;27468;47.460;19.034;2023-07-29T14:00:59;1.50;;;1.40;;
41799;SDS011;27468;47.460;19.034;2023-07-29T14:03:24;1.38;;;1.10;;
41799;SDS011;27468;47.460;19.034;2023-07-29T14:05:49;1.67;;;1.17;;
41799;SDS011;27468;47.460;19.034;2023-07-29T14:08:15;3.08;;;1.33;;
41799;SDS011;27468;47.460;19.034;2023-07-29T14:10:40;4.57;;;1.33;;
41799;SDS011;27468;47.460;19.034;2023-07-29T14:13:05;3.00;;;1.50;;
41799;SDS011;27468;47.460;19.034;2023-07-29T14:15:31;1.92;;;1.25;;
41799;SDS011;27468;47.460;19.034;2023-07-29T14:17:57;2.65;;;1.50;;
41799;SDS011;27468;47.460;19.034;2023-07-29T14:20:23;3.05;;;1.20;;
41799;SDS011;27468;47.460;19.034;2023-07-29T14:22:49;1.42;;;1.25;;
41799;SDS011;27468;47.460;19.034;2023-07-29T14:25:14;1.75;;;1.30;;
41799;SDS011;27468;47.460;19.034;2023-07-29T14:27:40;1.33;;;1.17;;
41799;SDS011;27468;47.460;19.034;2023-07-29T14:30:06;2.10;;;1.23;;
41799;SDS011;27468;47.460;19.034;2023-07-29T14:32:32;1.48;;;1.23;;
41799;SDS011;27468;47.460;19.034;2023-07-29T14:34:58;1.95;;;1.20;;
41799;SDS011;27468;47.460;19.034;2023-07-29T14:37:28;4.68;;;1.55;;
41799;SDS011;27468;47.460;19.034;2023-07-29T14:39:53;1.85;;;1.35;;
41799;SDS011;27468;47.460;19.034;2023-07-29T14:42:19;2.85;;;1.35;;
41799;SDS011;27468;47.460;19.034;2023-07-29T14:44:44;3.40;;;1.42;;